sensor_id;sensor_type;location;lat;lon;timestamp;P1;durP1;ratioP1;P2;durP2;ratioP2
53281;SDS011;39167;52.794;6.892;2022-09-09T00:00:17;12.40;;;6.43;;
53281;SDS011;39167;52.794;6.892;2022-09-09T00:06:05;11.88;;;6.50;;
53281;SDS011;39167;52.794;6.892;2022-09-09T00:08:44;13.07;;;5.68;;
53281;SDS011;39167;52.794;6.892;2022-09-09T00:11:12;9.57;;;5.97;;
53281;SDS011;39167;52.794;6.892;2022-09-09T00:13:42;10.93;;;6.32;;
53281;SDS011;39167;52.794;6.892;2022-09-09T00:16:21;12.73;;;6.20;;
53281;SDS011;39167;52.794;6.892;2022-09-09T00:19:24;8.30;;;5.13;;
53281;SDS011;39167;52.794;6.892;2022-09-09T00:22:05;11.70;;;5.97;;
53281;SDS011;39167;52.794;6.892;2022-09-09T00:24:42;10.48;;;4.95;;
53281;SDS011;39167;52.794;6.892;2022-09-09T00:30:17;11.10;;;5.28;;
53281;SDS011;39167;52.794;6.892;2022-09-09T00:32:47;11.52;;;5.05;;
53281;SDS011;39167;52.794;6.892;2022-09-09T00:35:29;13.13;;;5.85;;
53281;SDS011;39167;52.794;6.892;2022-09-09T00:38:05;12.25;;;5.65;;
53281;SDS011;39167;52.794;6.892;2022-09-09T00:43:36;9.02;;;5.22;;
53281;SDS011;39167;52.794;6.892;2022-09-09T00:51:29;12.35;;;6.20;;
53281;SDS011;39167;52.794;6.892;2022-09-09T00:54:31;10.95;;;6.07;;
53281;SDS011;39167;52.794;6.892;2022-09-09T01:02:28;8.40;;;4.75;;
53281;SDS011;39167;52.794;6.892;2022-09-09T01:05:02;9.60;;;5.10;;
53281;SDS011;39167;52.794;6.892;2022-09-09T01:07:35;8.27;;;5.07;;
53281;SDS011;39167;52.794;6.892;2022-09-09T01:10:03;8.77;;;5.35;;
53281;SDS011;39167;52.794;6.892;2022-09-09T01:12:43;10.82;;;5.60;;
53281;SDS011;39167;52.794;6.892;2022-09-09T01:15:20;9.23;;;4.68;;
53281;SDS011;39167;52.794;6.892;2022-09-09T01:20:26;10.98;;;5.38;;
53281;SDS011;39167;52.794;6.892;2022-09-09T01:31:04;10.13;;;4.57;;
53281;SDS011;39167;52.794;6.892;2022-09-09T01:33:31;10.40;;;5.80;;
53281;SDS011;39167;52.794;6.892;2022-09-09T01:36:12;10.18;;;5.00;;
53281;SDS011;39167;52.794;6.892;2022-09-09T01:38:48;8.48;;;4.15;;
53281;SDS011;39167;52.794;6.892;2022-09-09T01:41:13;9.07;;;4.78;;
53281;SDS011;39167;52.794;6.892;2022-09-09T01:43:39;9.85;;;4.97;;
53281;SDS011;39167;52.794;6.892;2022-09-09T01:46:05;9.63;;;5.07;;
53281;SDS011;39167;52.794;6.892;2022-09-09T01:48:31;9.05;;;5.47;;
53281;SDS011;39167;52.794;6.892;2022-09-09T01:50:57;9.65;;;4.80;;
53281;SDS011;39167;52.794;6.892;2022-09-09T01:53:22;10.40;;;5.72;;
53281;SDS011;39167;52.794;6.892;2022-09-09T01:58:50;9.50;;;5.68;;
53281;SDS011;39167;52.794;6.892;2022-09-09T02:04:07;10.07;;;5.35;;
53281;SDS011;39167;52.794;6.892;2022-09-09T02:06:53;8.55;;;6.00;;
53281;SDS011;39167;52.794;6.892;2022-09-09T02:09:24;13.13;;;6.20;;
53281;SDS011;39167;52.794;6.892;2022-09-09T02:11:59;8.75;;;5.97;;
53281;SDS011;39167;52.794;6.892;2022-09-09T02:14:34;8.15;;;5.30;;
53281;SDS011;39167;52.794;6.892;2022-09-09T02:17:08;9.75;;;6.20;;
53281;SDS011;39167;52.794;6.892;2022-09-09T02:19:43;13.63;;;6.40;;
53281;SDS011;39167;52.794;6.892;2022-09-09T02:22:14;10.68;;;6.45;;
53281;SDS011;39167;52.794;6.892;2022-09-09T02:24:43;9.13;;;5.68;;
53281;SDS011;39167;52.794;6.892;2022-09-09T02:27:11;7.55;;;5.38;;
53281;SDS011;39167;52.794;6.892;2022-09-09T02:29:41;15.80;;;6.57;;
53281;SDS011;39167;52.794;6.892;2022-09-09T02:32:09;13.75;;;7.43;;
53281;SDS011;39167;52.794;6.892;2022-09-09T02:34:40;14.70;;;6.75;;
53281;SDS011;39167;52.794;6.892;2022-09-09T02:37:10;11.57;;;6.13;;
53281;SDS011;39167;52.794;6.892;2022-09-09T02:39:37;9.80;;;5.43;;
53281;SDS011;39167;52.794;6.892;2022-09-09T02:42:03;10.98;;;6.82;;
53281;SDS011;39167;52.794;6.892;2022-09-09T02:44:30;13.25;;;6.82;;
53281;SDS011;39167;52.794;6.892;2022-09-09T02:52:42;12.55;;;6.07;;
53281;SDS011;39167;52.794;6.892;2022-09-09T02:58:08;10.15;;;5.35;;
53281;SDS011;39167;52.794;6.892;2022-09-09T03:00:37;9.77;;;6.45;;
53281;SDS011;39167;52.794;6.892;2022-09-09T03:03:04;10.52;;;6.15;;
53281;SDS011;39167;52.794;6.892;2022-09-09T03:05:31;15.85;;;6.53;;
53281;SDS011;39167;52.794;6.892;2022-09-09T03:07:57;12.80;;;6.80;;
53281;SDS011;39167;52.794;6.892;2022-09-09T03:10:23;8.57;;;5.72;;
53281;SDS011;39167;52.794;6.892;2022-09-09T03:12:49;8.63;;;5.85;;
53281;SDS011;39167;52.794;6.892;2022-09-09T03:15:15;13.25;;;5.85;;
53281;SDS011;39167;52.794;6.892;2022-09-09T03:17:41;10.60;;;5.00;;
53281;SDS011;39167;52.794;6.892;2022-09-09T03:20:07;10.35;;;5.38;;
53281;SDS011;39167;52.794;6.892;2022-09-09T03:22:33;9.20;;;5.57;;
53281;SDS011;39167;52.794;6.892;2022-09-09T03:25:00;12.27;;;5.93;;
53281;SDS011;39167;52.794;6.892;2022-09-09T03:27:28;9.65;;;4.50;;
53281;SDS011;39167;52.794;6.892;2022-09-09T03:29:54;6.38;;;3.83;;
53281;SDS011;39167;52.794;6.892;2022-09-09T03:32:21;5.45;;;2.58;;
53281;SDS011;39167;52.794;6.892;2022-09-09T03:34:47;6.07;;;2.85;;
53281;SDS011;39167;52.794;6.892;2022-09-09T03:37:15;4.40;;;1.60;;
53281;SDS011;39167;52.794;6.892;2022-09-09T03:39:42;5.38;;;1.50;;
53281;SDS011;39167;52.794;6.892;2022-09-09T03:42:09;5.07;;;1.40;;
53281;SDS011;39167;52.794;6.892;2022-09-09T03:44:37;4.07;;;1.20;;
53281;SDS011;39167;52.794;6.892;2022-09-09T03:47:03;5.28;;;2.22;;
53281;SDS011;39167;52.794;6.892;2022-09-09T03:49:28;5.93;;;2.08;;
53281;SDS011;39167;52.794;6.892;2022-09-09T03:51:55;6.75;;;3.05;;
53281;SDS011;39167;52.794;6.892;2022-09-09T03:54:23;4.45;;;2.40;;
53281;SDS011;39167;52.794;6.892;2022-09-09T03:56:49;7.82;;;3.05;;
53281;SDS011;39167;52.794;6.892;2022-09-09T03:59:14;5.65;;;3.10;;
53281;SDS011;39167;52.794;6.892;2022-09-09T04:01:40;8.43;;;4.53;;
53281;SDS011;39167;52.794;6.892;2022-09-09T04:04:06;11.32;;;4.80;;
53281;SDS011;39167;52.794;6.892;2022-09-09T04:06:32;9.80;;;5.82;;
53281;SDS011;39167;52.794;6.892;2022-09-09T04:08:58;11.13;;;6.05;;
53281;SDS011;39167;52.794;6.892;2022-09-09T04:11:24;11.43;;;6.30;;
53281;SDS011;39167;52.794;6.892;2022-09-09T04:13:50;9.25;;;6.57;;
53281;SDS011;39167;52.794;6.892;2022-09-09T04:16:16;14.98;;;7.50;;
53281;SDS011;39167;52.794;6.892;2022-09-09T04:18:42;14.13;;;8.10;;
53281;SDS011;39167;52.794;6.892;2022-09-09T04:21:08;15.02;;;8.20;;
53281;SDS011;39167;52.794;6.892;2022-09-09T04:23:35;12.57;;;7.53;;
53281;SDS011;39167;52.794;6.892;2022-09-09T04:26:01;14.77;;;7.85;;
53281;SDS011;39167;52.794;6.892;2022-09-09T04:28:29;18.35;;;9.13;;
53281;SDS011;39167;52.794;6.892;2022-09-09T04:30:56;13.93;;;8.10;;
53281;SDS011;39167;52.794;6.892;2022-09-09T04:33:25;13.80;;;8.35;;
53281;SDS011;39167;52.794;6.892;2022-09-09T04:35:51;13.55;;;8.50;;
53281;SDS011;39167;52.794;6.892;2022-09-09T04:38:20;15.40;;;9.32;;
53281;SDS011;39167;52.794;6.892;2022-09-09T04:40:47;11.13;;;7.93;;
53281;SDS011;39167;52.794;6.892;2022-09-09T04:43:14;16.48;;;8.77;;
53281;SDS011;39167;52.794;6.892;2022-09-09T04:45:40;13.75;;;8.73;;
53281;SDS011;39167;52.794;6.892;2022-09-09T04:48:07;14.10;;;8.95;;
53281;SDS011;39167;52.794;6.892;2022-09-09T04:50:34;11.65;;;7.95;;
53281;SDS011;39167;52.794;6.892;2022-09-09T04:53:04;15.20;;;8.73;;
53281;SDS011;39167;52.794;6.892;2022-09-09T04:55:30;12.75;;;8.43;;
53281;SDS011;39167;52.794;6.892;2022-09-09T04:57:57;13.32;;;7.63;;
53281;SDS011;39167;52.794;6.892;2022-09-09T05:00:23;14.82;;;7.90;;
53281;SDS011;39167;52.794;6.892;2022-09-09T05:02:49;13.05;;;7.72;;
53281;SDS011;39167;52.794;6.892;2022-09-09T05:05:16;13.02;;;8.00;;
53281;SDS011;39167;52.794;6.892;2022-09-09T05:07:41;14.60;;;7.90;;
53281;SDS011;39167;52.794;6.892;2022-09-09T05:10:08;10.77;;;7.18;;
53281;SDS011;39167;52.794;6.892;2022-09-09T05:12:35;10.80;;;7.47;;
53281;SDS011;39167;52.794;6.892;2022-09-09T05:15:01;11.38;;;7.68;;
53281;SDS011;39167;52.794;6.892;2022-09-09T05:17:27;10.85;;;7.22;;
53281;SDS011;39167;52.794;6.892;2022-09-09T05:19:52;11.10;;;6.95;;
53281;SDS011;39167;52.794;6.892;2022-09-09T05:22:21;11.68;;;7.25;;
53281;SDS011;39167;52.794;6.892;2022-09-09T05:24:48;9.70;;;6.28;;
53281;SDS011;39167;52.794;6.892;2022-09-09T05:27:16;9.80;;;5.93;;
53281;SDS011;39167;52.794;6.892;2022-09-09T05:29:45;12.73;;;7.03;;
53281;SDS011;39167;52.794;6.892;2022-09-09T05:32:11;11.55;;;6.53;;
53281;SDS011;39167;52.794;6.892;2022-09-09T05:34:38;12.52;;;8.63;;
53281;SDS011;39167;52.794;6.892;2022-09-09T05:37:04;13.13;;;7.70;;
53281;SDS011;39167;52.794;6.892;2022-09-09T05:39:30;12.02;;;8.05;;
53281;SDS011;39167;52.794;6.892;2022-09-09T05:41:57;11.40;;;7.30;;
53281;SDS011;39167;52.794;6.892;2022-09-09T05:44:23;12.57;;;7.70;;
53281;SDS011;39167;52.794;6.892;2022-09-09T05:46:52;12.93;;;8.07;;
53281;SDS011;39167;52.794;6.892;2022-09-09T05:49:19;11.57;;;7.30;;
53281;SDS011;39167;52.794;6.892;2022-09-09T05:51:46;12.02;;;6.97;;
53281;SDS011;39167;52.794;6.892;2022-09-09T05:54:13;9.98;;;7.47;;
53281;SDS011;39167;52.794;6.892;2022-09-09T05:56:40;10.13;;;7.15;;
53281;SDS011;39167;52.794;6.892;2022-09-09T05:59:06;10.75;;;6.65;;
53281;SDS011;39167;52.794;6.892;2022-09-09T06:01:34;12.38;;;7.50;;
53281;SDS011;39167;52.794;6.892;2022-09-09T06:04:01;11.80;;;6.78;;
53281;SDS011;39167;52.794;6.892;2022-09-09T06:06:31;10.10;;;6.57;;
53281;SDS011;39167;52.794;6.892;2022-09-09T06:09:04;11.48;;;7.05;;
53281;SDS011;39167;52.794;6.892;2022-09-09T06:11:35;9.93;;;6.07;;
53281;SDS011;39167;52.794;6.892;2022-09-09T06:14:02;11.07;;;6.40;;
53281;SDS011;39167;52.794;6.892;2022-09-09T06:16:29;10.25;;;5.97;;
53281;SDS011;39167;52.794;6.892;2022-09-09T06:18:57;11.98;;;6.30;;
53281;SDS011;39167;52.794;6.892;2022-09-09T06:21:24;8.93;;;6.25;;
53281;SDS011;39167;52.794;6.892;2022-09-09T06:23:51;15.25;;;6.68;;
53281;SDS011;39167;52.794;6.892;2022-09-09T06:26:25;9.52;;;6.20;;
53281;SDS011;39167;52.794;6.892;2022-09-09T06:28:58;11.60;;;7.07;;
53281;SDS011;39167;52.794;6.892;2022-09-09T06:31:25;9.82;;;5.43;;
53281;SDS011;39167;52.794;6.892;2022-09-09T06:33:55;9.50;;;5.67;;
53281;SDS011;39167;52.794;6.892;2022-09-09T06:36:23;11.73;;;6.75;;
53281;SDS011;39167;52.794;6.892;2022-09-09T06:38:51;8.80;;;5.88;;
53281;SDS011;39167;52.794;6.892;2022-09-09T06:41:17;12.10;;;6.43;;
53281;SDS011;39167;52.794;6.892;2022-09-09T06:43:45;10.05;;;6.38;;
53281;SDS011;39167;52.794;6.892;2022-09-09T06:46:12;11.98;;;6.68;;
53281;SDS011;39167;52.794;6.892;2022-09-09T06:48:40;13.75;;;7.90;;
53281;SDS011;39167;52.794;6.892;2022-09-09T06:51:10;9.73;;;7.22;;
53281;SDS011;39167;52.794;6.892;2022-09-09T06:53:37;12.73;;;7.47;;
53281;SDS011;39167;52.794;6.892;2022-09-09T06:58:41;12.57;;;7.75;;
53281;SDS011;39167;52.794;6.892;2022-09-09T07:01:10;11.15;;;7.68;;
53281;SDS011;39167;52.794;6.892;2022-09-09T07:03:38;13.38;;;8.20;;
53281;SDS011;39167;52.794;6.892;2022-09-09T07:06:08;12.38;;;7.28;;
53281;SDS011;39167;52.794;6.892;2022-09-09T07:08:39;10.02;;;6.80;;
53281;SDS011;39167;52.794;6.892;2022-09-09T07:11:06;10.38;;;6.70;;
53281;SDS011;39167;52.794;6.892;2022-09-09T07:13:33;10.95;;;7.10;;
53281;SDS011;39167;52.794;6.892;2022-09-09T07:16:03;8.45;;;6.50;;
53281;SDS011;39167;52.794;6.892;2022-09-09T07:18:33;9.23;;;6.32;;
53281;SDS011;39167;52.794;6.892;2022-09-09T07:21:00;11.07;;;6.85;;
53281;SDS011;39167;52.794;6.892;2022-09-09T07:23:27;10.98;;;6.53;;
53281;SDS011;39167;52.794;6.892;2022-09-09T07:25:54;11.57;;;6.35;;
53281;SDS011;39167;52.794;6.892;2022-09-09T07:28:20;9.68;;;6.28;;
53281;SDS011;39167;52.794;6.892;2022-09-09T07:30:53;10.50;;;6.30;;
53281;SDS011;39167;52.794;6.892;2022-09-09T07:33:19;8.25;;;5.90;;
53281;SDS011;39167;52.794;6.892;2022-09-09T07:35:45;12.00;;;6.63;;
53281;SDS011;39167;52.794;6.892;2022-09-09T07:38:11;9.73;;;5.88;;
53281;SDS011;39167;52.794;6.892;2022-09-09T07:40:37;10.70;;;6.80;;
53281;SDS011;39167;52.794;6.892;2022-09-09T07:43:02;15.00;;;6.93;;
53281;SDS011;39167;52.794;6.892;2022-09-09T07:45:28;13.45;;;6.45;;
53281;SDS011;39167;52.794;6.892;2022-09-09T07:47:55;9.70;;;6.65;;
53281;SDS011;39167;52.794;6.892;2022-09-09T07:50:22;10.27;;;6.28;;
53281;SDS011;39167;52.794;6.892;2022-09-09T07:52:49;16.20;;;6.85;;
53281;SDS011;39167;52.794;6.892;2022-09-09T07:55:18;13.80;;;6.30;;
53281;SDS011;39167;52.794;6.892;2022-09-09T07:57:45;14.65;;;6.80;;
53281;SDS011;39167;52.794;6.892;2022-09-09T08:00:11;13.00;;;6.53;;
53281;SDS011;39167;52.794;6.892;2022-09-09T08:02:37;9.48;;;6.18;;
53281;SDS011;39167;52.794;6.892;2022-09-09T08:05:03;11.18;;;6.55;;
53281;SDS011;39167;52.794;6.892;2022-09-09T08:07:31;11.00;;;7.20;;
53281;SDS011;39167;52.794;6.892;2022-09-09T08:09:56;11.20;;;7.38;;
53281;SDS011;39167;52.794;6.892;2022-09-09T08:12:22;9.50;;;6.93;;
53281;SDS011;39167;52.794;6.892;2022-09-09T08:14:48;9.88;;;6.13;;
53281;SDS011;39167;52.794;6.892;2022-09-09T08:17:14;9.55;;;6.25;;
53281;SDS011;39167;52.794;6.892;2022-09-09T08:19:40;13.05;;;6.93;;
53281;SDS011;39167;52.794;6.892;2022-09-09T08:22:05;11.88;;;6.70;;
53281;SDS011;39167;52.794;6.892;2022-09-09T08:24:32;12.15;;;6.60;;
53281;SDS011;39167;52.794;6.892;2022-09-09T08:26:58;11.90;;;6.22;;
53281;SDS011;39167;52.794;6.892;2022-09-09T08:29:24;11.80;;;6.50;;
53281;SDS011;39167;52.794;6.892;2022-09-09T08:31:53;10.23;;;6.88;;
53281;SDS011;39167;52.794;6.892;2022-09-09T08:34:22;12.90;;;6.20;;
53281;SDS011;39167;52.794;6.892;2022-09-09T08:36:49;12.75;;;6.38;;
53281;SDS011;39167;52.794;6.892;2022-09-09T08:39:17;9.00;;;5.40;;
53281;SDS011;39167;52.794;6.892;2022-09-09T08:58:11;11.57;;;3.95;;
53281;SDS011;39167;52.794;6.892;2022-09-09T09:05:51;11.95;;;4.53;;
53281;SDS011;39167;52.794;6.892;2022-09-09T09:11:26;11.63;;;4.00;;
53281;SDS011;39167;52.794;6.892;2022-09-09T09:13:57;10.98;;;3.90;;
53281;SDS011;39167;52.794;6.892;2022-09-09T09:16:32;10.68;;;4.15;;
53281;SDS011;39167;52.794;6.892;2022-09-09T09:19:03;13.55;;;4.18;;
53281;SDS011;39167;52.794;6.892;2022-09-09T09:21:38;11.48;;;3.55;;
53281;SDS011;39167;52.794;6.892;2022-09-09T09:24:15;9.98;;;3.60;;
53281;SDS011;39167;52.794;6.892;2022-09-09T09:26:47;12.05;;;3.78;;
53281;SDS011;39167;52.794;6.892;2022-09-09T09:29:14;13.05;;;3.85;;
53281;SDS011;39167;52.794;6.892;2022-09-09T09:31:59;5.78;;;3.28;;
53281;SDS011;39167;52.794;6.892;2022-09-09T09:34:28;9.68;;;3.65;;
53281;SDS011;39167;52.794;6.892;2022-09-09T09:36:57;8.98;;;3.25;;
53281;SDS011;39167;52.794;6.892;2022-09-09T09:39:28;8.75;;;2.88;;
53281;SDS011;39167;52.794;6.892;2022-09-09T09:41:56;9.98;;;3.20;;
53281;SDS011;39167;52.794;6.892;2022-09-09T09:44:27;16.27;;;3.30;;
53281;SDS011;39167;52.794;6.892;2022-09-09T09:47:08;9.48;;;3.10;;
53281;SDS011;39167;52.794;6.892;2022-09-09T09:49:38;11.18;;;3.20;;
53281;SDS011;39167;52.794;6.892;2022-09-09T09:52:05;10.60;;;3.05;;
53281;SDS011;39167;52.794;6.892;2022-09-09T09:54:33;12.15;;;3.38;;
53281;SDS011;39167;52.794;6.892;2022-09-09T09:57:10;10.82;;;2.80;;
53281;SDS011;39167;52.794;6.892;2022-09-09T09:59:38;9.73;;;2.60;;
53281;SDS011;39167;52.794;6.892;2022-09-09T10:04:45;6.22;;;2.20;;
53281;SDS011;39167;52.794;6.892;2022-09-09T10:07:12;7.10;;;2.17;;
53281;SDS011;39167;52.794;6.892;2022-09-09T10:09:43;11.35;;;2.38;;
53281;SDS011;39167;52.794;6.892;2022-09-09T10:15:03;8.60;;;2.28;;
53281;SDS011;39167;52.794;6.892;2022-09-09T10:18:08;7.78;;;2.28;;
53281;SDS011;39167;52.794;6.892;2022-09-09T10:23:42;5.85;;;2.33;;
53281;SDS011;39167;52.794;6.892;2022-09-09T10:28:59;8.55;;;2.00;;
53281;SDS011;39167;52.794;6.892;2022-09-09T10:37:06;7.53;;;1.85;;
53281;SDS011;39167;52.794;6.892;2022-09-09T10:39:56;7.97;;;2.05;;
53281;SDS011;39167;52.794;6.892;2022-09-09T10:42:48;8.40;;;2.08;;
53281;SDS011;39167;52.794;6.892;2022-09-09T10:45:16;7.22;;;2.35;;
53281;SDS011;39167;52.794;6.892;2022-09-09T10:48:02;9.70;;;1.95;;
53281;SDS011;39167;52.794;6.892;2022-09-09T10:50:53;7.75;;;2.00;;
53281;SDS011;39167;52.794;6.892;2022-09-09T10:56:13;7.18;;;2.10;;
53281;SDS011;39167;52.794;6.892;2022-09-09T10:58:55;7.80;;;1.80;;
53281;SDS011;39167;52.794;6.892;2022-09-09T11:01:54;6.95;;;1.83;;
53281;SDS011;39167;52.794;6.892;2022-09-09T11:04:38;5.50;;;1.60;;
53281;SDS011;39167;52.794;6.892;2022-09-09T11:07:10;8.18;;;1.63;;
53281;SDS011;39167;52.794;6.892;2022-09-09T11:09:44;6.40;;;1.40;;
53281;SDS011;39167;52.794;6.892;2022-09-09T11:12:16;4.72;;;1.50;;
53281;SDS011;39167;52.794;6.892;2022-09-09T11:14:49;8.20;;;2.13;;
53281;SDS011;39167;52.794;6.892;2022-09-09T11:17:21;6.07;;;1.60;;
53281;SDS011;39167;52.794;6.892;2022-09-09T11:20:11;7.05;;;1.50;;
53281;SDS011;39167;52.794;6.892;2022-09-09T11:22:39;6.05;;;1.73;;
53281;SDS011;39167;52.794;6.892;2022-09-09T11:25:17;10.25;;;2.10;;
53281;SDS011;39167;52.794;6.892;2022-09-09T11:38:48;4.93;;;1.25;;
53281;SDS011;39167;52.794;6.892;2022-09-09T11:41:16;7.35;;;1.20;;
53281;SDS011;39167;52.794;6.892;2022-09-09T11:43:46;7.90;;;1.67;;
53281;SDS011;39167;52.794;6.892;2022-09-09T11:46:13;6.28;;;1.60;;
53281;SDS011;39167;52.794;6.892;2022-09-09T11:48:43;7.43;;;1.27;;
53281;SDS011;39167;52.794;6.892;2022-09-09T11:53:55;11.48;;;1.80;;
53281;SDS011;39167;52.794;6.892;2022-09-09T11:56:34;5.20;;;1.40;;
53281;SDS011;39167;52.794;6.892;2022-09-09T11:59:23;6.53;;;1.50;;
53281;SDS011;39167;52.794;6.892;2022-09-09T12:04:39;4.82;;;1.73;;
53281;SDS011;39167;52.794;6.892;2022-09-09T12:09:46;7.55;;;1.80;;
53281;SDS011;39167;52.794;6.892;2022-09-09T12:17:43;6.35;;;1.50;;
53281;SDS011;39167;52.794;6.892;2022-09-09T12:28:18;5.10;;;1.30;;
53281;SDS011;39167;52.794;6.892;2022-09-09T12:31:05;5.65;;;1.45;;
53281;SDS011;39167;52.794;6.892;2022-09-09T12:33:43;5.70;;;1.48;;
53281;SDS011;39167;52.794;6.892;2022-09-09T12:36:19;5.05;;;1.42;;
53281;SDS011;39167;52.794;6.892;2022-09-09T12:38:56;5.90;;;1.55;;
53281;SDS011;39167;52.794;6.892;2022-09-09T12:41:35;5.03;;;1.42;;
53281;SDS011;39167;52.794;6.892;2022-09-09T12:44:05;5.97;;;1.30;;
53281;SDS011;39167;52.794;6.892;2022-09-09T12:46:39;8.45;;;1.45;;
53281;SDS011;39167;52.794;6.892;2022-09-09T12:52:12;5.43;;;1.38;;
53281;SDS011;39167;52.794;6.892;2022-09-09T12:54:44;5.60;;;1.80;;
53281;SDS011;39167;52.794;6.892;2022-09-09T12:57:16;6.18;;;1.50;;
53281;SDS011;39167;52.794;6.892;2022-09-09T12:59:43;10.73;;;1.65;;
53281;SDS011;39167;52.794;6.892;2022-09-09T13:02:23;6.05;;;1.85;;
53281;SDS011;39167;52.794;6.892;2022-09-09T13:04:50;4.13;;;1.30;;
53281;SDS011;39167;52.794;6.892;2022-09-09T13:07:20;5.88;;;1.70;;
53281;SDS011;39167;52.794;6.892;2022-09-09T13:09:47;4.93;;;1.00;;
53281;SDS011;39167;52.794;6.892;2022-09-09T13:12:15;7.57;;;1.50;;
53281;SDS011;39167;52.794;6.892;2022-09-09T13:14:43;8.10;;;1.48;;
53281;SDS011;39167;52.794;6.892;2022-09-09T13:17:18;4.72;;;1.58;;
53281;SDS011;39167;52.794;6.892;2022-09-09T13:19:49;5.55;;;1.42;;
53281;SDS011;39167;52.794;6.892;2022-09-09T13:22:22;6.18;;;1.45;;
53281;SDS011;39167;52.794;6.892;2022-09-09T13:27:35;4.43;;;1.40;;
53281;SDS011;39167;52.794;6.892;2022-09-09T13:30:25;7.40;;;2.10;;
53281;SDS011;39167;52.794;6.892;2022-09-09T13:35:28;9.48;;;1.52;;
53281;SDS011;39167;52.794;6.892;2022-09-09T13:37:54;8.00;;;1.75;;
53281;SDS011;39167;52.794;6.892;2022-09-09T13:40:21;5.35;;;1.92;;
53281;SDS011;39167;52.794;6.892;2022-09-09T13:42:51;7.10;;;2.00;;
53281;SDS011;39167;52.794;6.892;2022-09-09T13:45:21;7.75;;;1.50;;
53281;SDS011;39167;52.794;6.892;2022-09-09T13:47:48;5.78;;;2.00;;
53281;SDS011;39167;52.794;6.892;2022-09-09T13:50:27;10.60;;;2.05;;
53281;SDS011;39167;52.794;6.892;2022-09-09T13:52:56;5.28;;;1.60;;
53281;SDS011;39167;52.794;6.892;2022-09-09T13:55:24;6.70;;;1.75;;
53281;SDS011;39167;52.794;6.892;2022-09-09T13:57:53;5.60;;;1.33;;
53281;SDS011;39167;52.794;6.892;2022-09-09T14:00:23;5.32;;;1.30;;
53281;SDS011;39167;52.794;6.892;2022-09-09T14:02:50;3.40;;;1.13;;
53281;SDS011;39167;52.794;6.892;2022-09-09T14:05:17;5.50;;;1.15;;
53281;SDS011;39167;52.794;6.892;2022-09-09T14:07:43;3.88;;;1.17;;
53281;SDS011;39167;52.794;6.892;2022-09-09T14:10:10;4.22;;;1.40;;
53281;SDS011;39167;52.794;6.892;2022-09-09T14:12:37;3.72;;;1.40;;
53281;SDS011;39167;52.794;6.892;2022-09-09T14:15:04;3.30;;;0.90;;
53281;SDS011;39167;52.794;6.892;2022-09-09T14:17:30;2.20;;;0.85;;
53281;SDS011;39167;52.794;6.892;2022-09-09T14:19:57;3.45;;;0.75;;
53281;SDS011;39167;52.794;6.892;2022-09-09T14:22:23;6.53;;;1.00;;
53281;SDS011;39167;52.794;6.892;2022-09-09T14:24:49;1.38;;;0.47;;
53281;SDS011;39167;52.794;6.892;2022-09-09T14:27:16;3.42;;;1.13;;
53281;SDS011;39167;52.794;6.892;2022-09-09T14:29:42;1.40;;;0.50;;
53281;SDS011;39167;52.794;6.892;2022-09-09T14:32:09;2.20;;;0.63;;
53281;SDS011;39167;52.794;6.892;2022-09-09T14:34:35;3.03;;;0.60;;
53281;SDS011;39167;52.794;6.892;2022-09-09T14:37:01;4.43;;;1.17;;
53281;SDS011;39167;52.794;6.892;2022-09-09T14:39:27;2.30;;;0.70;;
53281;SDS011;39167;52.794;6.892;2022-09-09T14:41:53;2.78;;;0.82;;
53281;SDS011;39167;52.794;6.892;2022-09-09T14:44:18;3.58;;;0.55;;
53281;SDS011;39167;52.794;6.892;2022-09-09T14:46:44;3.35;;;0.75;;
53281;SDS011;39167;52.794;6.892;2022-09-09T14:49:10;2.85;;;0.82;;
53281;SDS011;39167;52.794;6.892;2022-09-09T14:51:38;2.92;;;0.93;;
53281;SDS011;39167;52.794;6.892;2022-09-09T14:54:03;2.60;;;0.80;;
53281;SDS011;39167;52.794;6.892;2022-09-09T14:56:30;3.92;;;0.90;;
53281;SDS011;39167;52.794;6.892;2022-09-09T14:58:59;2.75;;;1.45;;
53281;SDS011;39167;52.794;6.892;2022-09-09T15:01:29;1.90;;;1.20;;
53281;SDS011;39167;52.794;6.892;2022-09-09T15:04:00;5.72;;;1.42;;
53281;SDS011;39167;52.794;6.892;2022-09-09T15:06:29;4.70;;;1.25;;
53281;SDS011;39167;52.794;6.892;2022-09-09T15:08:58;4.10;;;1.23;;
53281;SDS011;39167;52.794;6.892;2022-09-09T15:11:29;4.15;;;1.13;;
53281;SDS011;39167;52.794;6.892;2022-09-09T15:13:57;4.75;;;1.30;;
53281;SDS011;39167;52.794;6.892;2022-09-09T15:16:24;5.00;;;1.33;;
53281;SDS011;39167;52.794;6.892;2022-09-09T15:18:54;5.57;;;1.27;;
53281;SDS011;39167;52.794;6.892;2022-09-09T15:21:22;1.90;;;1.00;;
53281;SDS011;39167;52.794;6.892;2022-09-09T15:23:50;5.30;;;1.33;;
53281;SDS011;39167;52.794;6.892;2022-09-09T15:26:17;4.30;;;1.20;;
53281;SDS011;39167;52.794;6.892;2022-09-09T15:28:44;4.30;;;1.63;;
53281;SDS011;39167;52.794;6.892;2022-09-09T15:31:13;4.35;;;1.27;;
53281;SDS011;39167;52.794;6.892;2022-09-09T15:33:46;3.45;;;1.17;;
53281;SDS011;39167;52.794;6.892;2022-09-09T15:38:41;3.38;;;1.73;;
53281;SDS011;39167;52.794;6.892;2022-09-09T15:41:09;3.10;;;1.40;;
53281;SDS011;39167;52.794;6.892;2022-09-09T15:43:35;2.90;;;1.27;;
53281;SDS011;39167;52.794;6.892;2022-09-09T15:46:05;2.78;;;1.20;;
53281;SDS011;39167;52.794;6.892;2022-09-09T15:49:05;5.03;;;1.75;;
53281;SDS011;39167;52.794;6.892;2022-09-09T15:51:34;5.45;;;1.70;;
53281;SDS011;39167;52.794;6.892;2022-09-09T15:54:00;5.55;;;1.45;;
53281;SDS011;39167;52.794;6.892;2022-09-09T15:56:26;3.63;;;1.40;;
53281;SDS011;39167;52.794;6.892;2022-09-09T15:58:57;3.25;;;1.50;;
53281;SDS011;39167;52.794;6.892;2022-09-09T16:01:24;4.03;;;1.70;;
53281;SDS011;39167;52.794;6.892;2022-09-09T16:03:50;5.75;;;1.80;;
53281;SDS011;39167;52.794;6.892;2022-09-09T16:06:20;3.97;;;1.85;;
53281;SDS011;39167;52.794;6.892;2022-09-09T16:08:48;6.03;;;1.40;;
53281;SDS011;39167;52.794;6.892;2022-09-09T16:11:17;4.88;;;1.65;;
53281;SDS011;39167;52.794;6.892;2022-09-09T16:13:45;5.25;;;1.42;;
53281;SDS011;39167;52.794;6.892;2022-09-09T16:16:13;5.38;;;1.80;;
53281;SDS011;39167;52.794;6.892;2022-09-09T16:18:43;4.68;;;1.42;;
53281;SDS011;39167;52.794;6.892;2022-09-09T16:21:18;4.28;;;2.08;;
53281;SDS011;39167;52.794;6.892;2022-09-09T16:23:49;6.10;;;2.13;;
53281;SDS011;39167;52.794;6.892;2022-09-09T16:26:17;6.53;;;1.65;;
53281;SDS011;39167;52.794;6.892;2022-09-09T16:28:43;4.38;;;1.65;;
53281;SDS011;39167;52.794;6.892;2022-09-09T16:31:12;2.60;;;1.30;;
53281;SDS011;39167;52.794;6.892;2022-09-09T16:33:40;8.32;;;1.60;;
53281;SDS011;39167;52.794;6.892;2022-09-09T16:36:07;6.15;;;1.70;;
53281;SDS011;39167;52.794;6.892;2022-09-09T16:38:35;5.68;;;1.70;;
53281;SDS011;39167;52.794;6.892;2022-09-09T16:41:01;5.28;;;1.60;;
53281;SDS011;39167;52.794;6.892;2022-09-09T16:43:30;5.50;;;1.70;;
53281;SDS011;39167;52.794;6.892;2022-09-09T16:45:55;4.25;;;1.65;;
53281;SDS011;39167;52.794;6.892;2022-09-09T16:48:21;4.63;;;1.80;;
53281;SDS011;39167;52.794;6.892;2022-09-09T16:50:47;4.03;;;1.45;;
53281;SDS011;39167;52.794;6.892;2022-09-09T16:53:13;7.32;;;1.80;;
53281;SDS011;39167;52.794;6.892;2022-09-09T16:55:40;5.57;;;1.60;;
53281;SDS011;39167;52.794;6.892;2022-09-09T16:58:07;4.47;;;1.35;;
53281;SDS011;39167;52.794;6.892;2022-09-09T17:00:36;3.42;;;1.52;;
53281;SDS011;39167;52.794;6.892;2022-09-09T17:03:02;6.22;;;1.67;;
53281;SDS011;39167;52.794;6.892;2022-09-09T17:05:28;4.93;;;1.75;;
53281;SDS011;39167;52.794;6.892;2022-09-09T17:07:54;6.38;;;1.77;;
53281;SDS011;39167;52.794;6.892;2022-09-09T17:10:23;3.92;;;1.45;;
53281;SDS011;39167;52.794;6.892;2022-09-09T17:12:50;4.45;;;1.70;;